createdAt,value
2022-09-09T00:04:10.430Z,13.2
2022-09-09T00:09:40.990Z,13.15
2022-09-09T00:14:48.786Z,13.15
2022-09-09T00:19:56.439Z,13.12
2022-09-09T00:25:04.107Z,13.07
2022-09-09T00:30:12.338Z,13.06
2022-09-09T00:35:19.862Z,13.04
2022-09-09T00:40:28.283Z,12.98
2022-09-09T00:45:35.710Z,12.92
2022-09-09T00:50:44.012Z,12.86
2022-09-09T00:55:51.350Z,12.78
2022-09-09T01:00:58.669Z,12.74
2022-09-09T01:06:06.332Z,12.7
2022-09-09T01:11:13.908Z,12.68
2022-09-09T01:16:22.065Z,12.62
2022-09-09T01:21:29.405Z,12.57
2022-09-09T01:26:36.382Z,12.52
2022-09-09T01:31:43.579Z,12.48
2022-09-09T01:36:50.876Z,12.5
2022-09-09T01:41:58.331Z,12.47
2022-09-09T01:47:05.853Z,12.4
2022-09-09T01:52:14.889Z,12.38
2022-09-09T01:57:22.234Z,12.34
2022-09-09T02:02:30.410Z,12.28
2022-09-09T02:07:37.204Z,12.28
2022-09-09T02:12:45.519Z,12.26
2022-09-09T02:17:54.507Z,12.28
2022-09-09T02:23:02.602Z,12.28
2022-09-09T02:28:09.789Z,12.3
2022-09-09T02:33:16.573Z,12.3
2022-09-09T02:38:24.542Z,12.26
2022-09-09T02:43:31.902Z,12.21
2022-09-09T02:48:39.363Z,12.17
2022-09-09T02:53:47.184Z,12.12
2022-09-09T02:58:54.383Z,12.09
2022-09-09T03:04:08.472Z,12.01
2022-09-09T03:09:15.099Z,11.96
2022-09-09T03:14:24.492Z,11.98
2022-09-09T03:19:32.670Z,11.99
2022-09-09T03:24:39.426Z,12.0
2022-09-09T03:29:46.479Z,11.97
2022-09-09T03:34:53.833Z,11.96
2022-09-09T03:40:00.244Z,11.96
2022-09-09T03:45:09.532Z,11.92
2022-09-09T03:50:17.271Z,11.9
2022-09-09T03:55:24.897Z,11.86
2022-09-09T04:00:37.982Z,11.83
2022-09-09T04:05:45.610Z,11.76
2022-09-09T04:10:52.018Z,11.74
2022-09-09T04:16:00.669Z,11.71
2022-09-09T04:21:07.501Z,11.78
2022-09-09T04:26:16.279Z,11.75
2022-09-09T04:31:24.755Z,11.66
2022-09-09T04:36:33.029Z,11.74
2022-09-09T04:41:41.715Z,11.74
2022-09-09T04:46:55.108Z,11.7
2022-09-09T04:52:01.862Z,11.64
2022-09-09T04:57:09.378Z,11.59
2022-09-09T05:02:16.582Z,11.62
2022-09-09T05:07:23.752Z,11.66
2022-09-09T05:12:31.859Z,11.71
2022-09-09T05:17:39.454Z,11.76
2022-09-09T05:22:46.648Z,11.84
2022-09-09T05:27:54.333Z,11.92
2022-09-09T05:33:02.014Z,12.06
2022-09-09T05:38:09.523Z,12.42
2022-09-09T05:43:16.122Z,13.78
2022-09-09T05:48:24.815Z,14.59
2022-09-09T05:53:31.677Z,15.09
2022-09-09T05:58:39.274Z,15.7
2022-09-09T06:03:47.160Z,16.14
2022-09-09T06:08:54.622Z,16.48
2022-09-09T06:14:01.838Z,16.78
2022-09-09T06:19:09.090Z,17.02
2022-09-09T06:24:16.663Z,17.48
2022-09-09T06:29:23.836Z,17.7
2022-09-09T06:34:31.194Z,18.04
2022-09-09T06:39:38.481Z,18.46
2022-09-09T06:44:46.306Z,18.93
2022-09-09T06:49:53.503Z,19.43
2022-09-09T06:55:00.849Z,19.79
2022-09-09T07:00:08.971Z,20.22
2022-09-09T07:05:17.051Z,20.78
2022-09-09T07:11:55.818Z,21.02
2022-09-09T07:17:01.864Z,20.85
2022-09-09T07:22:09.212Z,21.07
2022-09-09T07:27:16.165Z,21.57
2022-09-09T07:32:23.546Z,21.04
2022-09-09T07:37:30.883Z,20.42
2022-09-09T07:42:38.767Z,19.62
2022-09-09T07:49:17.094Z,19.06
2022-09-09T07:54:24.096Z,18.72
2022-09-09T07:59:32.054Z,18.52
2022-09-09T08:04:39.527Z,18.46
2022-09-09T08:09:48.092Z,18.32
2022-09-09T08:14:55.293Z,18.29
2022-09-09T08:20:02.816Z,18.28
2022-09-09T08:25:10.618Z,18.3
2022-09-09T08:30:19.609Z,18.42
2022-09-09T08:35:26.915Z,18.65
2022-09-09T08:40:35.414Z,18.79
2022-09-09T08:45:44.139Z,18.94
2022-09-09T08:50:56.503Z,19.29
2022-09-09T08:56:04.978Z,19.36
2022-09-09T09:01:13.063Z,19.48
2022-09-09T09:06:21.454Z,19.64
2022-09-09T09:11:29.615Z,19.7
2022-09-09T09:16:37.859Z,19.7
2022-09-09T09:21:46.513Z,19.67
2022-09-09T09:26:54.420Z,19.49
2022-09-09T09:32:01.494Z,19.46
2022-09-09T09:37:09.862Z,19.48
2022-09-09T09:42:18.334Z,19.57
2022-09-09T09:47:26.699Z,19.78
2022-09-09T09:52:35.213Z,19.84
2022-09-09T09:57:43.129Z,20.04
2022-09-09T10:02:50.681Z,20.46
2022-09-09T10:07:57.690Z,20.66
2022-09-09T10:13:05.538Z,20.78
2022-09-09T10:18:13.492Z,20.88
2022-09-09T10:23:20.909Z,20.9
2022-09-09T10:28:29.017Z,21.01
2022-09-09T10:33:35.717Z,21.06
2022-09-09T10:38:43.425Z,21.23
2022-09-09T10:43:50.098Z,21.42
2022-09-09T10:48:58.898Z,21.38
2022-09-09T10:54:06.301Z,21.35
2022-09-09T10:59:14.413Z,21.34
2022-09-09T11:04:22.254Z,21.26
2022-09-09T11:09:30.459Z,21.24
2022-09-09T11:14:37.448Z,21.1
2022-09-09T11:19:45.346Z,21.12
2022-09-09T11:24:53.847Z,21.49
2022-09-09T11:30:02.456Z,21.78
2022-09-09T11:35:10.250Z,21.84
2022-09-09T11:40:17.890Z,21.66
2022-09-09T11:45:25.371Z,21.75
2022-09-09T11:50:33.746Z,21.96
2022-09-09T11:55:41.651Z,22.28
2022-09-09T12:00:50.005Z,22.34
2022-09-09T12:05:57.338Z,22.46
2022-09-09T12:11:05.125Z,22.47
2022-09-09T12:16:13.060Z,22.38
2022-09-09T12:21:20.254Z,22.08
2022-09-09T12:26:26.783Z,21.85
2022-09-09T12:31:33.661Z,21.57
2022-09-09T12:36:40.537Z,21.3
2022-09-09T12:41:48.185Z,21.07
2022-09-09T12:47:01.258Z,20.82
2022-09-09T12:52:09.294Z,20.65
2022-09-09T12:57:17.059Z,20.38
2022-09-09T13:02:24.323Z,20.3
2022-09-09T13:07:33.082Z,20.24
2022-09-09T13:12:41.563Z,20.4
2022-09-09T13:17:49.727Z,20.62
2022-09-09T13:22:57.857Z,20.74
2022-09-09T13:28:05.512Z,20.56
2022-09-09T13:33:13.226Z,20.44
2022-09-09T13:40:13.133Z,20.47
2022-09-09T13:45:19.760Z,20.4
2022-09-09T13:50:27.394Z,20.3
2022-09-09T13:55:35.628Z,20.22
2022-09-09T14:00:43.946Z,20.06
2022-09-09T14:05:50.978Z,19.9
2022-09-09T14:10:58.580Z,19.64
2022-09-09T14:16:05.745Z,19.26
2022-09-09T14:21:12.557Z,18.99
2022-09-09T14:26:20.839Z,18.76
2022-09-09T14:31:27.573Z,18.48
2022-09-09T14:36:34.725Z,18.3
2022-09-09T14:41:43.043Z,18.15
2022-09-09T14:46:51.370Z,17.99
2022-09-09T14:51:58.994Z,17.86
2022-09-09T14:57:06.864Z,17.71
2022-09-09T15:02:15.137Z,17.58
2022-09-09T15:07:44.955Z,17.51
2022-09-09T15:12:52.700Z,17.44
2022-09-09T15:17:59.362Z,17.38
2022-09-09T15:23:06.489Z,17.2
2022-09-09T15:28:14.927Z,17.07
2022-09-09T15:33:23.285Z,16.96
2022-09-09T15:38:31.254Z,16.83
2022-09-09T15:43:37.825Z,16.75
2022-09-09T15:48:45.702Z,16.75
2022-09-09T15:53:52.862Z,16.73
2022-09-09T15:59:00.117Z,16.74
2022-09-09T16:04:07.950Z,16.74
2022-09-09T16:09:16.008Z,16.66
2022-09-09T16:14:23.688Z,16.58
2022-09-09T16:19:31.401Z,16.57
2022-09-09T16:24:39.356Z,16.61
2022-09-09T16:29:47.659Z,16.58
2022-09-09T16:34:54.951Z,16.54
2022-09-09T16:40:02.146Z,16.48
2022-09-09T16:45:10.006Z,16.43
2022-09-09T16:50:17.435Z,16.33
2022-09-09T16:55:25.535Z,16.21
2022-09-09T17:00:32.907Z,16.14
2022-09-09T17:05:40.088Z,16.07
2022-09-09T17:10:47.614Z,15.99
2022-09-09T17:15:56.321Z,15.9
2022-09-09T17:21:03.579Z,15.84
2022-09-09T17:26:11.919Z,15.79
2022-09-09T17:31:20.407Z,15.78
2022-09-09T17:36:28.566Z,15.76
2022-09-09T17:41:35.606Z,15.72
2022-09-09T17:46:42.771Z,15.7
2022-09-09T17:51:51.114Z,15.7
2022-09-09T17:56:57.889Z,15.67
2022-09-09T18:02:05.658Z,15.63
2022-09-09T18:07:15.931Z,15.6
2022-09-09T18:12:23.980Z,15.56
2022-09-09T18:17:31.767Z,15.54
2022-09-09T18:22:40.466Z,15.49
2022-09-09T18:27:48.082Z,15.51
2022-09-09T18:32:55.780Z,15.52
2022-09-09T18:38:03.101Z,15.53
2022-09-09T18:43:09.654Z,15.55
2022-09-09T18:48:17.582Z,15.57
2022-09-09T18:53:25.291Z,15.59
2022-09-09T18:58:33.496Z,15.59
2022-09-09T19:03:40.377Z,15.53
2022-09-09T19:08:48.243Z,15.52
2022-09-09T19:13:55.445Z,15.48
2022-09-09T19:19:04.016Z,15.46
2022-09-09T19:24:11.718Z,15.4
2022-09-09T19:29:20.457Z,15.38
2022-09-09T19:34:27.949Z,15.3
2022-09-09T19:39:35.894Z,15.3
2022-09-09T19:44:43.313Z,15.3
2022-09-09T19:49:50.303Z,15.28
2022-09-09T19:54:58.254Z,15.26
2022-09-09T20:00:06.087Z,15.24
2022-09-09T20:05:13.841Z,15.24
2022-09-09T20:10:21.709Z,15.25
2022-09-09T20:15:29.498Z,15.26
2022-09-09T20:20:37.195Z,15.26
2022-09-09T20:25:45.210Z,15.21
2022-09-09T20:30:54.266Z,15.13
2022-09-09T20:36:00.889Z,15.05
2022-09-09T20:41:08.878Z,14.98
2022-09-09T20:46:16.622Z,14.96
2022-09-09T20:51:23.185Z,14.94
2022-09-09T20:56:31.243Z,14.92
2022-09-09T21:01:38.161Z,14.92
2022-09-09T21:06:46.403Z,14.94
2022-09-09T21:11:53.818Z,14.94
2022-09-09T21:17:02.738Z,14.85
2022-09-09T21:22:10.648Z,14.75
2022-09-09T21:27:17.377Z,14.64
2022-09-09T21:32:25.212Z,14.62
2022-09-09T21:37:32.885Z,14.62
2022-09-09T21:42:41.355Z,14.64
2022-09-09T21:47:48.696Z,14.66
2022-09-09T21:52:56.672Z,14.72
2022-09-09T21:58:04.341Z,14.75
2022-09-09T22:03:12.072Z,14.76
2022-09-09T22:08:19.441Z,14.79
2022-09-09T22:13:27.250Z,14.8
2022-09-09T22:18:35.237Z,14.8
2022-09-09T22:23:42.408Z,14.8
2022-09-09T22:28:50.120Z,14.76
2022-09-09T22:33:57.089Z,14.75
2022-09-09T22:39:03.988Z,14.74
2022-09-09T22:44:12.174Z,14.69
2022-09-09T22:49:20.935Z,14.63
2022-09-09T22:54:28.059Z,14.59
2022-09-09T22:59:35.836Z,14.6
2022-09-09T23:04:42.461Z,14.6
2022-09-09T23:09:51.736Z,14.61
2022-09-09T23:14:59.570Z,14.6
2022-09-09T23:20:07.407Z,14.62
2022-09-09T23:25:15.029Z,14.59
2022-09-09T23:30:23.720Z,14.58
2022-09-09T23:35:30.774Z,14.59
2022-09-09T23:40:39.289Z,14.58
2022-09-09T23:45:46.458Z,14.52
2022-09-09T23:50:54.624Z,14.5
2022-09-09T23:56:02.890Z,14.46
